Time;durP1;ratioP1;P1;durP2;ratioP2;P2;SDS_P1;SDS_P2;PMS_P1;PMS_P2;Temp;Humidity;BMP_temperature;BMP_pressure;BME280_temperature;BME280_humidity;BME280_pressure;Samples;Min_cycle;Max_cycle;Signal;HPM_P1;HPM_P2
2021/04/30 00:01:03;;;;;;;20.30;12.28;;;;;;;11.07;66.20;99345.05;2180875;81;33542;-66
2021/04/30 00:04:06;;;;;;;20.90;12.80;;;;;;;11.02;66.45;99348.97;2203422;80;28862;-62
2021/04/30 00:07:09;;;;;;;22.62;12.47;;;;;;;10.92;66.37;99352.78;2219090;80;28096;-62
2021/04/30 00:10:12;;;;;;;18.17;13.03;;;;;;;10.86;66.55;99358.53;2198534;80;31075;-62
2021/04/30 00:13:15;;;;;;;19.00;13.80;;;;;;;10.79;66.74;99360.27;2183578;80;31145;-62
2021/04/30 00:16:17;;;;;;;21.25;14.40;;;;;;;10.71;66.83;99362.60;2209861;80;34391;-62
2021/04/30 00:19:20;;;;;;;20.35;14.83;;;;;;;10.61;67.05;99371.71;2187306;80;28929;-63
2021/04/30 00:22:22;;;;;;;24.02;16.10;;;;;;;10.57;67.36;99371.52;2207133;80;27781;-62
2021/04/30 00:25:25;;;;;;;21.77;14.40;;;;;;;10.53;67.63;99370.00;2181129;81;28841;-62
2021/04/30 00:28:27;;;;;;;22.05;14.35;;;;;;;10.46;67.44;99376.72;2181044;80;31216;-62
2021/04/30 00:31:30;;;;;;;23.75;16.12;;;;;;;10.42;67.39;99372.52;2191349;79;33281;-65
2021/04/30 00:34:33;;;;;;;28.50;16.00;;;;;;;10.37;67.71;99378.14;2227725;79;29151;-64
2021/04/30 00:37:38;;;;;;;22.13;14.07;;;;;;;10.31;67.59;99387.89;2205243;74;27760;-65
2021/04/30 00:40:43;;;;;;;19.03;12.83;;;;;;;10.25;67.87;99390.48;2191774;81;28819;-64
2021/04/30 00:43:51;;;;;;;15.65;7.95;;;;;;;10.23;67.97;99393.73;2193811;81;31408;-65
2021/04/30 00:46:58;;;;;;;13.40;7.87;;;;;;;10.24;67.97;99390.59;2232509;79;33138;-65
2021/04/30 00:50:10;;;;;;;16.07;9.63;;;;;;;10.26;68.10;99398.89;2232684;79;30342;-65
2021/04/30 00:53:17;;;;;;;14.53;9.53;;;;;;;10.28;68.04;99402.80;2231459;79;28214;-65
2021/04/30 00:56:23;;;;;;;17.60;10.60;;;;;;;10.27;68.09;99407.77;2225034;79;28833;-65
2021/04/30 00:59:30;;;;;;;18.50;9.68;;;;;;;10.25;68.06;99413.73;2232044;79;32169;-65
2021/04/30 01:02:37;;;;;;;13.32;9.90;;;;;;;10.21;67.92;99421.55;2205361;79;33099;-64
2021/04/30 01:05:42;;;;;;;14.70;9.13;;;;;;;10.16;67.87;99420.02;2232571;79;29163;-65
2021/04/30 01:08:48;;;;;;;13.98;8.85;;;;;;;10.11;67.79;99430.14;2230701;79;27661;-65
2021/04/30 01:11:54;;;;;;;15.83;9.50;;;;;;;10.04;67.69;99428.32;2230650;79;29436;-64
2021/04/30 01:15:01;;;;;;;12.85;8.38;;;;;;;9.98;67.74;99431.39;2230554;79;31138;-65
2021/04/30 01:18:08;;;;;;;11.68;7.67;;;;;;;9.89;67.54;99431.94;2230433;79;33957;-65
2021/04/30 01:21:15;;;;;;;11.90;7.97;;;;;;;9.83;67.61;99432.33;2230664;79;29172;-66
2021/04/30 01:24:23;;;;;;;10.98;6.85;;;;;;;9.77;67.63;99437.55;2232602;79;28240;-65
2021/04/30 01:27:31;;;;;;;14.03;6.97;;;;;;;9.71;67.47;99439.28;2231271;79;28852;-64
2021/04/30 01:30:41;;;;;;;10.85;7.20;;;;;;;9.68;67.76;99442.13;2232493;79;31133;-63
2021/04/30 01:33:57;;;;;;;12.43;7.37;;;;;;;9.63;67.70;99444.20;2232211;79;32980;-65
2021/04/30 01:37:05;;;;;;;11.30;7.55;;;;;;;9.61;67.80;99442.09;2232441;79;29198;-64
2021/04/30 01:40:17;;;;;;;12.80;7.55;;;;;;;9.56;67.71;99449.06;2193416;81;27720;-64
2021/04/30 01:43:25;;;;;;;10.98;7.42;;;;;;;9.52;67.67;99447.05;2224552;79;28843;-65
2021/04/30 01:46:29;;;;;;;12.53;7.55;;;;;;;9.48;67.67;99448.67;2230213;79;31138;-65
2021/04/30 01:49:31;;;;;;;9.55;7.87;;;;;;;9.40;67.61;99453.98;2231633;79;33101;-64
2021/04/30 01:52:35;;;;;;;13.98;6.65;;;;;;;9.34;67.59;99454.36;2230737;79;30524;-63
2021/04/30 01:55:37;;;;;;;14.18;7.00;;;;;;;9.30;67.65;99456.81;2231834;79;27648;-64
2021/04/30 01:58:41;;;;;;;11.57;7.40;;;;;;;9.21;67.62;99458.20;2231479;79;28809;-64
2021/04/30 02:01:44;;;;;;;10.88;7.35;;;;;;;9.15;67.70;99470.57;2229940;79;31220;-64
2021/04/30 02:04:46;;;;;;;10.58;5.78;;;;;;;9.07;67.79;99464.82;2230393;79;33925;-64
2021/04/30 02:07:49;;;;;;;10.25;6.35;;;;;;;9.02;67.84;99461.54;2230614;79;29153;-64
2021/04/30 02:10:53;;;;;;;10.40;6.92;;;;;;;9.01;67.88;99470.05;2231199;79;27766;-64
2021/04/30 02:13:55;;;;;;;8.70;6.28;;;;;;;8.99;67.86;99472.39;2231111;79;28864;-63
2021/04/30 02:16:57;;;;;;;10.50;6.65;;;;;;;8.97;67.87;99469.82;2229961;79;31137;-65
2021/04/30 02:20:00;;;;;;;9.03;6.58;;;;;;;8.93;67.80;99469.14;2230998;79;33934;-64
2021/04/30 02:23:06;;;;;;;10.03;7.12;;;;;;;8.90;67.68;99465.76;2231086;79;29224;-65
2021/04/30 02:26:08;;;;;;;11.83;6.47;;;;;;;8.86;67.72;99466.87;2231142;79;28189;-64
2021/04/30 02:29:11;;;;;;;10.35;6.75;;;;;;;8.81;67.75;99469.80;2221685;80;28817;-64
2021/04/30 02:32:13;;;;;;;9.38;7.08;;;;;;;8.80;67.78;99473.42;2224653;79;32100;-64
2021/04/30 02:35:20;;;;;;;14.75;6.97;;;;;;;8.77;67.82;99476.29;2227481;79;34244;-64
2021/04/30 02:38:23;;;;;;;10.70;6.85;;;;;;;8.72;67.76;99469.84;2228878;78;29156;-66
2021/04/30 02:41:27;;;;;;;8.60;6.37;;;;;;;8.68;67.96;99464.77;2228690;79;27650;-65
2021/04/30 02:44:30;;;;;;;12.13;6.47;;;;;;;8.64;68.00;99465.42;2228422;79;29321;-64
2021/04/30 02:47:34;;;;;;;10.88;6.70;;;;;;;8.59;68.09;99463.01;2227995;79;31133;-65
2021/04/30 02:50:36;;;;;;;10.18;6.37;;;;;;;8.57;68.19;99466.23;2228797;79;33109;-65
2021/04/30 02:53:39;;;;;;;12.35;6.85;;;;;;;8.59;68.32;99467.02;2227045;79;29341;-64
2021/04/30 02:56:41;;;;;;;12.63;7.42;;;;;;;8.58;68.37;99472.42;2229033;79;27718;-64
2021/04/30 02:59:46;;;;;;;;;;;;;;;8.58;68.40;99469.75;2208162;79;28836;-65
2021/04/30 03:02:50;;;;;;;9.43;7.28;;;;;;;8.56;68.42;99487.66;2230116;79;32027;-65
2021/04/30 03:05:52;;;;;;;10.55;7.15;;;;;;;8.52;68.49;99484.30;2230326;79;33306;-65
2021/04/30 03:08:55;;;;;;;10.15;7.20;;;;;;;8.50;68.71;99487.52;2231385;79;30090;-64
2021/04/30 03:11:57;;;;;;;12.45;8.35;;;;;;;8.47;68.89;99489.86;2192157;79;27688;-65
2021/04/30 03:15:01;;;;;;;14.87;7.55;;;;;;;8.46;68.99;99498.81;2230240;79;29701;-65
2021/04/30 03:18:06;;;;;;;11.05;8.63;;;;;;;8.45;68.99;99505.55;2230426;79;31146;-65
2021/04/30 03:21:08;;;;;;;8.95;7.72;;;;;;;8.43;69.08;99511.47;2231818;79;34025;-65
2021/04/30 03:24:11;;;;;;;14.90;8.00;;;;;;;8.40;69.11;99514.30;2230188;79;29169;-64
2021/04/30 03:27:13;;;;;;;15.10;8.93;;;;;;;8.36;69.15;99520.24;2230156;79;27720;-64
2021/04/30 03:30:18;;;;;;;13.50;7.90;;;;;;;8.34;69.18;99523.50;2230051;79;29246;-65
2021/04/30 03:33:20;;;;;;;15.47;9.77;;;;;;;8.34;69.19;99522.16;2229989;79;31134;-65
2021/04/30 03:36:23;;;;;;;15.60;9.78;;;;;;;8.38;69.27;99522.36;2230714;79;33062;-65
2021/04/30 03:39:26;;;;;;;15.30;10.10;;;;;;;8.44;69.35;99529.21;2221010;79;29168;-65
2021/04/30 03:42:28;;;;;;;14.33;10.43;;;;;;;8.49;69.30;99532.50;2215841;80;27717;-66
2021/04/30 03:45:31;;;;;;;16.55;10.60;;;;;;;8.55;69.13;99536.19;2215137;80;30228;-65
2021/04/30 03:48:33;;;;;;;14.15;9.88;;;;;;;8.63;69.10;99541.97;2216866;80;31567;-66
2021/04/30 03:51:36;;;;;;;19.30;12.20;;;;;;;8.69;68.93;99548.78;2228145;78;33646;-63
2021/04/30 03:54:38;;;;;;;14.78;11.22;;;;;;;8.75;68.78;99551.62;2214271;80;30034;-64
2021/04/30 03:57:41;;;;;;;16.80;12.07;;;;;;;8.81;68.78;99557.94;2216574;80;27734;-65
2021/04/30 04:00:43;;;;;;;20.02;12.18;;;;;;;8.86;68.71;99565.70;2216813;80;28841;-65
2021/04/30 04:03:45;;;;;;;14.80;11.35;;;;;;;8.91;68.66;99572.53;2216808;80;30937;-65
2021/04/30 04:06:48;;;;;;;15.43;11.88;;;;;;;8.94;68.37;99579.02;2216097;80;34077;-65
2021/04/30 04:09:50;;;;;;;17.25;10.70;;;;;;;8.98;68.29;99578.41;2214917;80;30531;-66
2021/04/30 04:12:53;;;;;;;16.90;10.95;;;;;;;9.00;68.11;99587.20;2215457;80;28207;-66
2021/04/30 04:15:59;;;;;;;16.67;11.55;;;;;;;9.00;67.92;99591.67;2215186;80;28899;-63
2021/04/30 04:19:00;;;;;;;18.27;11.88;;;;;;;8.99;67.88;99598.83;2215502;79;31507;-65
2021/04/30 04:22:03;;;;;;;19.80;13.30;;;;;;;9.03;67.75;99608.88;2216793;80;33123;-65
2021/04/30 04:25:07;;;;;;;19.20;12.05;;;;;;;9.06;67.67;99615.39;2217092;80;29788;-66
2021/04/30 04:28:10;;;;;;;15.28;11.65;;;;;;;9.09;67.51;99608.06;2215137;80;27646;-65
2021/04/30 04:31:12;;;;;;;16.20;11.50;;;;;;;9.11;67.14;99612.84;2214444;80;30660;-65
2021/04/30 04:34:14;;;;;;;20.17;12.05;;;;;;;9.14;66.97;99613.63;2216809;80;31148;-65
2021/04/30 04:37:17;;;;;;;14.90;10.98;;;;;;;9.18;66.92;99626.73;2217181;79;33119;-65
2021/04/30 04:40:20;;;;;;;16.20;12.30;;;;;;;9.23;66.80;99624.68;2215320;79;30030;-64
2021/04/30 04:43:23;;;;;;;17.60;12.45;;;;;;;9.28;66.51;99628.43;2212967;80;28585;-66
2021/04/30 04:46:25;;;;;;;21.30;12.98;;;;;;;9.37;66.60;99631.06;2214682;80;31272;-65
2021/04/30 04:49:27;;;;;;;17.52;12.37;;;;;;;9.51;66.63;99637.84;2212790;80;33401;-64
2021/04/30 04:52:30;;;;;;;18.50;11.88;;;;;;;9.73;66.36;99641.98;2214085;80;33100;-65
2021/04/30 04:55:33;;;;;;;14.18;11.85;;;;;;;9.86;66.05;99640.79;2214926;80;29163;-65
2021/04/30 04:58:35;;;;;;;13.78;10.13;;;;;;;10.27;66.11;99637.98;2215159;80;28100;-64
2021/04/30 05:01:37;;;;;;;15.78;11.20;;;;;;;10.87;65.67;99646.47;2213853;80;28835;-65
2021/04/30 05:04:39;;;;;;;12.28;10.98;;;;;;;11.63;65.15;99647.59;2214131;80;31155;-64
2021/04/30 05:07:41;;;;;;;16.05;10.18;;;;;;;12.37;64.36;99638.70;2207049;80;32931;-64
2021/04/30 06:25:32;;;;;;;10.60;8.70;;;;;;;20.65;42.66;99661.58;2177157;77;31279;-64
2021/04/30 06:28:35;;;;;;;9.90;8.90;;;;;;;20.83;42.74;99657.48;2205330;80;34162;-64
2021/04/30 06:31:39;;;;;;;9.70;8.80;;;;;;;21.09;42.11;99660.73;2206713;80;29244;-66
2021/04/30 06:34:41;;;;;;;9.90;9.00;;;;;;;21.30;41.65;99677.19;2207165;80;37010;-67
2021/04/30 06:37:43;;;;;;;10.40;9.35;;;;;;;21.41;40.64;99676.92;2205380;80;28802;-65
2021/04/30 06:40:46;;;;;;;10.05;9.05;;;;;;;21.58;40.03;99677.01;2205329;80;32138;-65
2021/04/30 06:43:48;;;;;;;10.60;8.35;;;;;;;21.62;39.58;99687.45;2206340;80;34786;-65
2021/04/30 06:46:50;;;;;;;10.35;8.45;;;;;;;21.68;39.04;99681.32;2199920;80;30587;-64
2021/04/30 06:49:53;;;;;;;9.50;8.40;;;;;;;21.78;39.04;99680.35;2202354;80;27683;-66
2021/04/30 06:52:55;;;;;;;10.45;9.13;;;;;;;21.87;37.86;99675.78;2200340;80;28836;-66
2021/04/30 06:55:58;;;;;;;13.60;9.68;;;;;;;22.01;38.17;99676.51;2204853;80;32104;-66
2021/04/30 06:59:00;;;;;;;10.45;8.88;;;;;;;22.18;37.57;99683.37;2205230;80;33067;-66
2021/04/30 07:02:04;;;;;;;13.22;8.95;;;;;;;22.33;37.14;99684.42;2205034;80;29159;-65
2021/04/30 07:05:08;;;;;;;9.03;8.08;;;;;;;22.24;36.30;99685.44;2207092;80;27737;-65
2021/04/30 07:08:10;;;;;;;10.43;9.33;;;;;;;22.22;35.86;99691.05;2198917;79;28809;-68
2021/04/30 07:11:12;;;;;;;9.85;8.80;;;;;;;22.32;36.39;99693.63;2206588;80;31127;-65
2021/04/30 07:14:15;;;;;;;9.98;8.80;;;;;;;22.45;36.17;99700.00;2202957;80;33161;-66
2021/04/30 07:17:17;;;;;;;11.78;9.60;;;;;;;22.48;35.87;99695.57;2201663;80;29213;-67
2021/04/30 07:20:19;;;;;;;9.50;8.60;;;;;;;22.54;35.50;99690.78;2183469;80;27746;-65
2021/04/30 07:23:22;;;;;;;9.40;8.38;;;;;;;22.57;34.74;99700.00;2205243;79;28795;-66
2021/04/30 07:26:24;;;;;;;10.82;8.53;;;;;;;22.50;34.71;99698.13;2185106;80;31198;-68
2021/04/30 07:29:26;;;;;;;10.08;8.33;;;;;;;22.42;34.56;99709.36;2149316;82;33561;-66
2021/04/30 07:32:28;;;;;;;8.40;7.62;;;;;;;22.48;34.80;99709.72;2178859;81;29152;-64
2021/04/30 07:35:30;;;;;;;10.25;8.00;;;;;;;22.64;34.46;99710.26;2150895;82;27778;-65
2021/04/30 07:38:33;;;;;;;8.90;7.58;;;;;;;22.90;34.23;99700.01;2180943;81;28814;-66
2021/04/30 07:41:35;;;;;;;8.40;7.50;;;;;;;23.09;33.03;99705.27;2151326;82;32201;-67
2021/04/30 07:44:37;;;;;;;8.30;6.92;;;;;;;23.15;33.54;99697.77;2149843;82;33976;-66
2021/04/30 07:47:39;;;;;;;7.97;7.20;;;;;;;23.40;32.41;99706.80;2180439;81;29154;-66
2021/04/30 07:50:42;;;;;;;7.62;6.90;;;;;;;23.45;32.61;99709.88;2150678;82;27805;-66
2021/04/30 07:53:44;;;;;;;8.20;7.30;;;;;;;23.61;32.14;99706.75;2179282;81;28828;-66
2021/04/30 07:56:47;;;;;;;7.65;6.90;;;;;;;23.56;32.02;99707.28;2179124;81;31057;-66
2021/04/30 07:59:49;;;;;;;7.55;6.67;;;;;;;23.58;32.12;99709.30;2150037;82;34006;-66
2021/04/30 08:02:52;;;;;;;7.72;6.03;;;;;;;23.42;31.58;99716.17;2179207;81;29161;-65
2021/04/30 08:05:55;;;;;;;9.50;6.92;;;;;;;23.25;31.51;99717.58;2150809;82;27723;-65
2021/04/30 08:08:57;;;;;;;7.33;6.17;;;;;;;23.03;31.68;99723.21;2178678;81;28833;-64
2021/04/30 08:11:59;;;;;;;7.40;6.33;;;;;;;23.00;31.15;99724.95;2148716;82;31137;-66
2021/04/30 08:15:03;;;;;;;7.47;6.35;;;;;;;23.13;31.70;99725.27;2180657;81;33320;-65
2021/04/30 08:18:06;;;;;;;6.33;5.58;;;;;;;23.23;31.83;99718.79;2151191;82;29177;-62
2021/04/30 08:21:08;;;;;;;13.10;6.40;;;;;;;23.38;31.08;99719.78;2179411;81;27711;-65
2021/04/30 08:24:12;;;;;;;7.12;6.53;;;;;;;23.34;31.08;99726.61;2143090;81;28902;-65
2021/04/30 08:27:14;;;;;;;7.00;5.85;;;;;;;23.28;30.38;99723.23;2109788;83;31348;-66
2021/04/30 08:30:17;;;;;;;7.17;5.87;;;;;;;23.18;30.56;99716.02;2105240;84;33236;-68
2021/04/30 08:33:19;;;;;;;6.60;5.70;;;;;;;23.11;30.90;99720.48;2164255;82;29167;-68
2021/04/30 08:36:22;;;;;;;5.53;5.03;;;;;;;23.11;30.90;99717.76;2200547;80;27793;-66
2021/04/30 08:39:24;;;;;;;5.97;5.15;;;;;;;23.18;30.73;99731.05;2144281;83;28807;-66
2021/04/30 08:42:28;;;;;;;5.95;5.35;;;;;;;23.12;30.73;99734.49;2143605;83;31209;-65
2021/04/30 08:45:31;;;;;;;6.90;6.30;;;;;;;23.06;31.00;99729.20;2145678;83;32268;-80
2021/04/30 08:48:34;;;;;;;7.22;5.97;;;;;;;23.13;31.00;99737.57;2145562;83;29236;-80
2021/04/30 08:51:38;;;;;;;12.37;5.60;;;;;;;22.86;30.31;99739.61;2145526;83;27657;-79
2021/04/30 08:54:42;;;;;;;6.72;5.95;;;;;;;22.64;30.29;99749.84;2143555;83;28835;-78
2021/04/30 08:57:46;;;;;;;10.45;6.83;;;;;;;22.30;30.41;99743.42;2150882;81;32997;-66
2021/04/30 09:00:49;;;;;;;10.10;7.17;;;;;;;22.00;31.00;99742.49;2158969;81;33165;-66
2021/04/30 09:03:51;;;;;;;9.78;6.37;;;;;;;21.82;30.93;99744.45;2117424;83;28973;-66
2021/04/30 09:06:53;;;;;;;9.05;6.12;;;;;;;21.57;31.00;99752.45;2137753;82;27695;-65
2021/04/30 09:10:12;;;;;;;6.70;5.72;;;;;;;21.47;31.57;99746.27;2139414;83;32699;-65
2021/04/30 09:13:18;;;;;;;7.28;5.92;;;;;;;21.37;31.87;99747.22;2145564;83;32076;-66
2021/04/30 09:16:20;;;;;;;6.30;5.50;;;;;;;21.29;31.61;99753.99;2145104;83;33109;-65
2021/04/30 09:19:36;;;;;;;6.55;5.53;;;;;;;21.09;31.36;99740.56;2143949;83;30447;-64
2021/04/30 09:22:44;;;;;;;8.80;5.70;;;;;;;20.97;31.61;99739.60;2153529;82;28285;-65
2021/04/30 09:25:45;;;;;;;25.32;7.53;;;;;;;20.73;31.14;99743.28;2140258;83;28842;-65
2021/04/30 09:29:08;;;;;;;6.60;6.00;;;;;;;20.57;31.94;99748.58;2143995;83;31361;-65
2021/04/30 09:32:11;;;;;;;10.58;5.28;;;;;;;20.38;32.20;99749.06;2143838;83;32295;-65
2021/04/30 09:35:23;;;;;;;8.33;5.92;;;;;;;20.32;32.30;99751.90;2143914;83;30154;-65
2021/04/30 09:38:33;;;;;;;7.33;5.60;;;;;;;20.23;32.61;99756.91;2143840;83;27602;-64
2021/04/30 09:41:36;;;;;;;7.90;5.87;;;;;;;20.01;32.32;99754.10;2143641;83;28888;-65
2021/04/30 09:44:41;;;;;;;6.17;5.40;;;;;;;19.75;32.66;99761.53;2146801;82;31160;-65
2021/04/30 09:47:45;;;;;;;6.10;5.50;;;;;;;19.50;32.97;99753.06;2146539;82;33134;-65
2021/04/30 09:50:47;;;;;;;7.45;5.55;;;;;;;19.27;32.86;99756.11;2116447;82;29153;-63
2021/04/30 09:53:50;;;;;;;5.45;4.95;;;;;;;19.07;33.70;99754.42;2146916;82;27764;-63
2021/04/30 09:57:23;;;;;;;5.75;5.22;;;;;;;18.93;33.52;99751.12;2146492;82;28671;-63
2021/04/30 10:00:29;;;;;;;6.90;5.40;;;;;;;18.79;33.76;99753.75;2082251;84;32575;-63
2021/04/30 10:03:36;;;;;;;6.40;5.80;;;;;;;18.63;33.73;99770.63;2101783;82;33818;-62
2021/04/30 10:06:39;;;;;;;5.92;5.33;;;;;;;18.45;33.93;99758.75;2146508;82;29058;-62
2021/04/30 10:09:43;;;;;;;8.33;6.20;;;;;;;18.34;33.89;99748.39;2115846;82;28216;-61
2021/04/30 10:12:57;;;;;;;9.70;7.62;;;;;;;18.25;34.53;99747.02;2147288;82;29707;-60
2021/04/30 10:16:00;;;;;;;6.78;6.05;;;;;;;18.16;35.06;99750.91;2148169;82;31662;-63
2021/04/30 10:19:03;;;;;;;10.40;6.22;;;;;;;18.12;34.96;99749.46;2147870;82;33127;-61
2021/04/30 10:22:06;;;;;;;7.00;5.03;;;;;;;18.14;35.19;99753.41;2147005;82;29171;-62
2021/04/30 10:25:12;;;;;;;8.63;6.15;;;;;;;18.11;35.14;99754.56;2146399;82;27668;-61
2021/04/30 10:28:25;;;;;;;6.25;5.10;;;;;;;18.05;35.16;99745.09;2143072;83;29358;-61
2021/04/30 10:31:32;;;;;;;8.50;6.08;;;;;;;17.98;35.46;99752.09;2144171;83;31907;-62
2021/04/30 10:34:40;;;;;;;7.58;5.30;;;;;;;17.91;35.16;99747.69;2143004;83;33189;-62
2021/04/30 10:37:45;;;;;;;7.22;5.22;;;;;;;17.84;35.15;99747.02;2145408;83;28653;-62
2021/04/30 10:41:06;;;;;;;6.55;4.85;;;;;;;17.77;35.26;99760.25;2145033;81;27899;-62
2021/04/30 10:44:24;;;;;;;10.23;5.85;;;;;;;17.75;35.82;99753.59;2143568;83;28897;-70
2021/04/30 10:47:27;;;;;;;5.53;4.95;;;;;;;17.79;35.47;99758.75;2144758;81;31147;-61
2021/04/30 10:50:29;;;;;;;8.18;4.65;;;;;;;17.82;35.80;99753.06;2144636;82;34035;-60
2021/04/30 10:53:32;;;;;;;6.45;5.10;;;;;;;17.86;35.73;99744.52;2141866;83;29548;-61
2021/04/30 10:56:35;;;;;;;5.33;4.70;;;;;;;17.90;35.68;99741.03;2143479;83;27672;-62
2021/04/30 10:59:42;;;;;;;8.03;4.92;;;;;;;17.96;36.20;99745.91;2142989;81;31108;-60
2021/04/30 11:02:44;;;;;;;5.28;4.67;;;;;;;18.05;36.06;99748.32;2135735;81;31149;-61
2021/04/30 11:06:00;;;;;;;7.47;5.15;;;;;;;18.12;36.04;99750.82;2144871;81;33118;-61
2021/04/30 11:09:08;;;;;;;;;;;;;;;18.12;35.87;99742.69;2136547;81;28999;-63
2021/04/30 11:12:25;;;;;;;7.10;4.65;;;;;;;18.16;36.50;99744.13;2122874;83;27573;-63
2021/04/30 11:15:48;;;;;;;4.75;4.35;;;;;;;18.23;36.08;99756.63;2161327;80;29750;-64
2021/04/30 11:19:02;;;;;;;4.92;4.33;;;;;;;18.30;36.07;99762.34;2125487;82;31138;-78
2021/04/30 11:22:13;;;;;;;6.33;4.63;;;;;;;18.42;36.42;99750.41;2115122;82;33055;-75
2021/04/30 11:25:16;;;;;;;5.35;4.55;;;;;;;18.57;36.41;99751.34;2130659;81;29357;-62
2021/04/30 11:28:18;;;;;;;4.42;4.03;;;;;;;18.64;35.72;99753.83;2147577;81;27714;-61
2021/04/30 11:31:29;;;;;;;6.58;4.78;;;;;;;18.64;36.01;99756.55;2144484;81;28664;-62
2021/04/30 11:34:31;;;;;;;5.10;4.60;;;;;;;18.66;35.93;99754.55;2149258;81;31343;-61
2021/04/30 11:37:37;;;;;;;4.95;4.55;;;;;;;18.65;35.81;99750.12;2149832;81;34456;-62
2021/04/30 11:40:39;;;;;;;6.83;5.00;;;;;;;18.59;35.65;99744.77;2143733;81;29683;-61
2021/04/30 11:43:50;;;;;;;5.65;4.72;;;;;;;18.53;35.42;99750.78;2148950;81;27734;-62
2021/04/30 11:47:01;;;;;;;6.42;4.42;;;;;;;18.51;35.57;99748.70;2149343;81;28831;-62
2021/04/30 11:50:01;;;;;;;6.62;4.47;;;;;;;18.46;35.72;99746.91;2202912;79;31203;-62
2021/04/30 11:53:13;;;;;;;6.62;4.62;;;;;;;18.46;35.66;99747.75;2193761;79;33001;-61
2021/04/30 11:56:17;;;;;;;4.92;4.40;;;;;;;18.49;35.46;99753.41;2199107;79;28970;-61
2021/04/30 11:59:20;;;;;;;6.30;4.37;;;;;;;18.48;35.17;99748.46;2203564;79;27759;-61
2021/04/30 12:02:26;;;;;;;4.40;4.00;;;;;;;18.40;35.52;99745.62;2201442;80;29301;-63
2021/04/30 12:05:30;;;;;;;4.87;4.30;;;;;;;18.42;35.67;99754.95;2202929;79;31146;-61
2021/04/30 12:08:32;;;;;;;4.30;3.77;;;;;;;18.42;35.60;99740.91;2195588;79;34042;-62
2021/04/30 12:11:36;;;;;;;6.53;4.50;;;;;;;18.43;35.85;99745.34;2197592;79;29223;-62
2021/04/30 12:14:58;;;;;;;6.30;4.80;;;;;;;18.45;35.83;99746.55;2192967;79;27953;-62
2021/04/30 12:18:01;;;;;;;5.30;4.22;;;;;;;18.43;35.43;99739.04;2196248;79;28879;-62
2021/04/30 12:21:04;;;;;;;7.40;5.00;;;;;;;18.36;35.69;99737.39;2204493;79;32052;-62
2021/04/30 12:24:08;;;;;;;5.12;3.98;;;;;;;18.31;35.17;99731.53;2203241;79;33105;-62
2021/04/30 12:27:10;;;;;;;4.97;4.00;;;;;;;18.22;35.65;99730.51;2199416;79;30091;-62
2021/04/30 12:30:26;;;;;;;8.00;4.80;;;;;;;18.24;36.08;99733.10;2203814;79;27729;-61
2021/04/30 12:33:42;;;;;;;5.62;4.50;;;;;;;18.24;36.03;99731.75;2201660;79;29819;-61
2021/04/30 12:36:44;;;;;;;6.20;4.33;;;;;;;18.24;35.77;99738.52;2196072;80;31136;-63
2021/04/30 12:39:47;;;;;;;7.70;4.97;;;;;;;18.19;35.88;99727.59;2201115;80;33129;-62
2021/04/30 12:42:51;;;;;;;10.28;5.00;;;;;;;18.16;35.93;99718.89;2202472;79;29314;-62
2021/04/30 12:45:55;;;;;;;9.75;5.78;;;;;;;18.14;36.41;99727.66;2203625;80;27655;-62
2021/04/30 12:49:09;;;;;;;6.03;5.03;;;;;;;18.12;36.35;99722.88;2205291;79;29680;-60
2021/04/30 12:52:11;;;;;;;5.70;5.15;;;;;;;18.09;36.15;99721.78;2202700;79;31151;-61
2021/04/30 12:55:32;;;;;;;8.28;6.83;;;;;;;18.07;36.54;99724.14;2202919;80;33560;-62
2021/04/30 12:58:40;;;;;;;6.45;5.78;;;;;;;18.09;36.39;99724.50;2197875;79;30011;-62
2021/04/30 13:01:49;;;;;;;6.33;5.60;;;;;;;18.02;36.01;99729.62;2201116;80;27663;-62
2021/04/30 13:04:51;;;;;;;6.55;4.72;;;;;;;17.95;36.60;99723.87;2204330;79;29706;-61
2021/04/30 13:07:55;;;;;;;5.78;5.17;;;;;;;17.95;36.77;99729.80;2176847;80;32658;-62
2021/04/30 13:11:01;;;;;;;8.18;5.78;;;;;;;17.89;36.50;99732.05;2166256;80;33249;-61
2021/04/30 13:14:11;;;;;;;6.47;5.83;;;;;;;17.89;36.38;99733.89;2192680;79;29240;-61
2021/04/30 13:17:25;;;;;;;6.55;5.67;;;;;;;17.86;36.67;99731.48;2204762;80;27842;-62
2021/04/30 13:20:31;;;;;;;9.05;5.65;;;;;;;17.87;36.89;99730.48;2201948;79;28816;-62
2021/04/30 13:23:40;;;;;;;5.30;4.80;;;;;;;17.85;36.59;99728.41;2201951;79;31147;-61
2021/04/30 13:27:05;;;;;;;5.17;4.67;;;;;;;17.78;36.65;99726.75;2193327;79;33124;-61
2021/04/30 13:30:09;;;;;;;6.83;4.97;;;;;;;17.71;36.61;99725.56;2210684;80;29170;-61
2021/04/30 13:33:23;;;;;;;4.60;4.08;;;;;;;17.64;36.62;99730.67;2173498;80;27675;-61
2021/04/30 13:36:26;;;;;;;9.50;5.00;;;;;;;17.53;36.52;99722.66;2148972;81;28822;-61
2021/04/30 13:39:31;;;;;;;6.22;4.35;;;;;;;17.43;36.48;99726.16;2149395;81;32091;-62
2021/04/30 13:42:37;;;;;;;5.87;4.70;;;;;;;17.36;36.63;99723.64;2152485;81;33099;-61
2021/04/30 13:45:40;;;;;;;5.22;4.72;;;;;;;17.21;36.96;99733.95;2143442;81;29241;-61
2021/04/30 13:48:44;;;;;;;5.35;4.53;;;;;;;17.21;36.96;99733.95;2150591;81;27768;-61
2021/04/30 13:51:47;;;;;;;4.87;4.42;;;;;;;17.20;37.15;99728.68;2153905;81;29849;-61
2021/04/30 13:54:50;;;;;;;6.92;5.17;;;;;;;17.18;37.11;99736.91;2153343;81;32076;-62
2021/04/30 13:57:53;;;;;;;4.87;4.37;;;;;;;17.13;36.98;99737.80;2148356;81;35471;-62
2021/04/30 14:00:56;;;;;;;6.37;4.78;;;;;;;17.10;37.27;99724.55;2149180;81;29590;-61
2021/04/30 14:04:00;;;;;;;7.85;5.03;;;;;;;17.13;37.79;99731.03;2152214;81;28204;-61
2021/04/30 14:07:03;;;;;;;5.47;4.92;;;;;;;17.18;37.61;99726.09;2148039;81;28823;-61
2021/04/30 14:10:06;;;;;;;6.42;5.15;;;;;;;17.25;37.89;99723.22;2150846;81;32358;-61
2021/04/30 14:13:10;;;;;;;7.17;5.37;;;;;;;17.36;37.23;99726.34;2146442;81;33123;-61
2021/04/30 14:16:13;;;;;;;5.72;4.97;;;;;;;17.36;37.23;99726.34;2208877;79;29168;-60
2021/04/30 14:19:15;;;;;;;5.33;4.83;;;;;;;17.42;37.55;99722.24;2208941;80;27762;-61
2021/04/30 14:22:18;;;;;;;6.50;4.95;;;;;;;17.47;37.50;99721.31;2208824;79;28996;-62
2021/04/30 14:25:22;;;;;;;6.35;4.85;;;;;;;17.49;37.08;99714.44;2209565;79;31148;-61
2021/04/30 14:28:24;;;;;;;7.58;5.03;;;;;;;17.48;37.51;99717.63;2150544;81;33949;-59
2021/04/30 14:31:27;;;;;;;7.35;5.08;;;;;;;17.43;37.48;99714.48;2134923;81;29228;-61
2021/04/30 14:34:32;;;;;;;6.90;5.92;;;;;;;17.38;37.51;99722.98;2181241;80;28249;-64
2021/04/30 14:37:35;;;;;;;8.70;5.20;;;;;;;17.31;37.44;99734.01;2177298;80;28829;-62
2021/04/30 14:40:37;;;;;;;7.95;5.87;;;;;;;17.04;37.69;99733.20;2207091;80;31147;-62
2021/04/30 14:43:40;;;;;;;13.55;6.40;;;;;;;17.04;37.69;99733.20;2183088;79;33079;-67
2021/04/30 14:46:42;;;;;;;7.28;5.83;;;;;;;17.12;37.81;99758.61;2190960;80;29304;-69
2021/04/30 14:49:44;;;;;;;5.80;5.17;;;;;;;17.12;37.82;99758.61;2172315;80;27602;-68
2021/04/30 14:52:47;;;;;;;8.65;6.08;;;;;;;17.13;37.99;99763.52;2205590;80;29769;-69
2021/04/30 14:55:50;;;;;;;7.53;5.45;;;;;;;17.08;37.91;99759.85;2173538;79;31325;-69
2021/04/30 14:58:52;;;;;;;7.20;5.10;;;;;;;17.06;38.00;99753.71;2191816;80;33042;-70
2021/04/30 15:01:54;;;;;;;7.08;5.28;;;;;;;16.88;38.05;99734.48;2201223;80;30085;-68
2021/04/30 15:04:56;;;;;;;5.67;5.08;;;;;;;16.99;37.96;99766.91;2193642;80;28241;-68
2021/04/30 15:07:59;;;;;;;5.35;4.90;;;;;;;16.93;37.93;99765.19;2187069;80;28824;-77
2021/04/30 15:11:03;;;;;;;5.17;4.67;;;;;;;16.85;37.86;99769.42;2194554;79;31126;-70
2021/04/30 15:14:06;;;;;;;8.03;4.35;;;;;;;16.71;38.04;99757.06;2185213;80;33759;-70
2021/04/30 15:17:09;;;;;;;5.72;5.22;;;;;;;16.71;38.04;99757.06;2186893;80;29170;-72
2021/04/30 15:20:12;;;;;;;6.70;5.35;;;;;;;16.65;38.13;99758.07;2198784;80;27721;-72
2021/04/30 15:23:16;;;;;;;6.67;5.55;;;;;;;16.59;38.23;99760.80;2205124;80;28863;-70
2021/04/30 15:26:18;;;;;;;7.75;4.87;;;;;;;16.48;38.37;99749.53;2207617;79;31317;-71
2021/04/30 15:29:20;;;;;;;9.40;5.50;;;;;;;16.50;38.30;99767.84;2185627;80;33176;-72
2021/04/30 15:32:22;;;;;;;7.58;6.45;;;;;;;16.47;38.34;99765.86;2149823;82;29174;-72
2021/04/30 15:35:25;;;;;;;8.75;6.03;;;;;;;16.44;38.57;99758.03;2162459;81;27583;-60
2021/04/30 15:38:28;;;;;;;9.48;6.37;;;;;;;16.35;38.46;99763.70;2175899;81;29551;-60
2021/04/30 15:41:30;;;;;;;9.93;6.62;;;;;;;16.22;38.70;99767.39;2139806;82;31143;-60